Johnson Park, California
Current Conditions -  °F | °C
As of 11:53 AM on Friday 24 Oct 2014 (Local Time) from KRDD Reporting Station
Clear Clear  
Wind Chill: 66°   Ceiling: Unl
Heat Index: 66°   Visibility: 10mi
Dew Point: 56°   Wind: 0mph
Humidity: 70%   Direction: NA
Pressure: 29.96"   Gusts: NA
Location:  40.9066°N, 121.657°W
Report Text: KRDD 241853Z 00000KT 10SM CLR 19/13 A2996 RMK AO2 SLP141 T01890133
Loading
Personal Weather Stations






























Interactive Weather Map
Tropical Storm Tracking
New forecast layout! Learn more

10-Day Weather Forecast

Advertisements
Track Severe Weather on mobile